createdAt,value
2022-07-29T00:00:59.249Z,57.40
2022-07-29T00:03:26.248Z,57.80
2022-07-29T00:05:54.109Z,58.40
2022-07-29T00:08:21.105Z,58.50
2022-07-29T00:10:48.047Z,58.70
2022-07-29T00:13:14.940Z,58.90
2022-07-29T00:15:41.803Z,59.40
2022-07-29T00:18:08.551Z,59.20
2022-07-29T00:20:35.366Z,59.40
2022-07-29T00:23:02.115Z,59.70
2022-07-29T00:25:28.803Z,60.10
2022-07-29T00:27:55.487Z,59.60
2022-07-29T00:30:22.315Z,59.30
2022-07-29T00:32:49.074Z,59.10
2022-07-29T00:35:34.121Z,59.30
2022-07-29T00:38:00.813Z,59.70
2022-07-29T00:40:28.929Z,59.40
2022-07-29T00:42:55.736Z,59.80
2022-07-29T00:45:23.217Z,60.00
2022-07-29T00:47:50.178Z,60.20
2022-07-29T00:50:17.366Z,59.90
2022-07-29T00:52:44.250Z,59.90
2022-07-29T00:55:13.458Z,59.80
2022-07-29T00:57:41.977Z,59.60
2022-07-29T01:00:12.670Z,59.80
2022-07-29T01:02:39.553Z,60.10
2022-07-29T01:05:07.102Z,60.00
2022-07-29T01:07:36.105Z,60.20
2022-07-29T01:10:05.321Z,60.50
2022-07-29T01:12:34.707Z,60.60
2022-07-29T01:15:03.708Z,60.50
2022-07-29T01:17:53.606Z,60.60
2022-07-29T01:20:39.102Z,60.70
2022-07-29T01:23:56.243Z,60.70
2022-07-29T01:26:33.997Z,60.40
2022-07-29T01:29:16.879Z,60.60
2022-07-29T01:32:00.867Z,60.40
2022-07-29T01:34:51.324Z,60.30
2022-07-29T01:37:25.929Z,60.40
2022-07-29T01:39:56.202Z,60.50
2022-07-29T01:42:31.766Z,60.50
2022-07-29T01:45:03.080Z,60.60
2022-07-29T01:47:39.852Z,60.90
2022-07-29T01:50:11.332Z,61.20
2022-07-29T01:53:00.896Z,61.00
2022-07-29T01:55:32.075Z,60.60
2022-07-29T01:58:01.060Z,60.80
2022-07-29T02:00:29.326Z,60.90
2022-07-29T02:02:57.071Z,60.80
2022-07-29T02:05:28.246Z,61.10
2022-07-29T02:07:56.794Z,60.90
2022-07-29T02:10:27.642Z,61.00
2022-07-29T02:12:56.839Z,61.30
2022-07-29T02:15:29.706Z,61.10
2022-07-29T02:18:00.929Z,60.90
2022-07-29T02:20:29.980Z,61.10
2022-07-29T02:22:59.494Z,61.20
2022-07-29T02:25:37.066Z,61.20
2022-07-29T02:28:07.573Z,61.00
2022-07-29T02:30:37.760Z,61.10
2022-07-29T02:33:05.666Z,61.10
2022-07-29T02:35:34.635Z,61.00
2022-07-29T02:38:22.829Z,61.00
2022-07-29T02:40:51.511Z,61.00
2022-07-29T02:43:19.545Z,60.90
2022-07-29T02:45:48.330Z,61.80
2022-07-29T02:48:22.594Z,61.00
2022-07-29T02:50:55.545Z,61.00
2022-07-29T02:53:26.054Z,60.80
2022-07-29T02:56:07.488Z,60.70
2022-07-29T02:58:47.210Z,60.60
2022-07-29T03:01:21.865Z,60.60
2022-07-29T03:03:50.599Z,60.90
2022-07-29T03:06:37.656Z,60.80
2022-07-29T03:09:12.956Z,60.90
2022-07-29T03:11:50.093Z,60.90
2022-07-29T03:14:20.339Z,60.80
2022-07-29T03:16:48.379Z,60.80
2022-07-29T03:19:15.480Z,60.70
2022-07-29T03:21:42.170Z,60.80
2022-07-29T03:24:10.827Z,60.90
2022-07-29T03:26:37.925Z,60.90
2022-07-29T03:29:04.663Z,60.90
2022-07-29T03:31:32.150Z,60.90
2022-07-29T03:34:00.410Z,60.70
2022-07-29T03:36:27.111Z,60.90
2022-07-29T03:38:54.404Z,60.80
2022-07-29T03:41:23.512Z,60.80
2022-07-29T03:43:52.535Z,60.80
2022-07-29T03:46:22.270Z,60.80
2022-07-29T03:48:53.852Z,60.70
2022-07-29T03:51:33.329Z,60.80
2022-07-29T03:54:09.870Z,60.50
2022-07-29T03:56:48.700Z,60.70
2022-07-29T03:59:17.142Z,60.50
2022-07-29T04:01:45.719Z,60.60
2022-07-29T04:04:13.191Z,60.70
2022-07-29T04:06:44.661Z,60.60
2022-07-29T04:09:13.044Z,60.60
2022-07-29T04:12:01.475Z,60.60
2022-07-29T04:14:27.997Z,60.60
2022-07-29T04:16:54.686Z,60.60
2022-07-29T04:19:21.338Z,60.60
2022-07-29T04:21:48.140Z,60.70
2022-07-29T04:24:15.411Z,60.70
2022-07-29T04:26:42.439Z,60.60
2022-07-29T04:29:09.369Z,60.60
2022-07-29T04:31:36.123Z,60.60
2022-07-29T04:34:02.853Z,60.60
2022-07-29T04:36:30.181Z,60.50
2022-07-29T04:38:57.218Z,60.60
2022-07-29T04:41:23.916Z,60.40
2022-07-29T04:44:02.033Z,60.50
2022-07-29T04:46:28.957Z,60.50
2022-07-29T04:48:55.830Z,60.40
2022-07-29T04:51:22.666Z,60.30
2022-07-29T04:53:49.378Z,60.20
2022-07-29T04:56:16.101Z,60.30
2022-07-29T04:58:42.838Z,60.30
2022-07-29T05:01:09.609Z,60.30
2022-07-29T05:03:36.446Z,60.10
2022-07-29T05:06:03.375Z,60.40
2022-07-29T05:08:30.133Z,60.50
2022-07-29T05:10:56.925Z,60.50
2022-07-29T05:13:23.709Z,60.50
2022-07-29T05:15:50.688Z,60.50
2022-07-29T05:18:17.436Z,60.40
2022-07-29T05:20:44.365Z,60.40
2022-07-29T05:23:13.645Z,60.40
2022-07-29T05:25:43.487Z,60.50
2022-07-29T05:28:11.904Z,60.50
2022-07-29T05:30:39.152Z,60.60
2022-07-29T05:33:05.910Z,60.60
2022-07-29T05:35:32.721Z,60.60
2022-07-29T05:37:59.427Z,60.60
2022-07-29T05:40:26.174Z,60.60
2022-07-29T05:42:52.928Z,60.60
2022-07-29T05:45:19.611Z,60.50
2022-07-29T05:47:46.566Z,60.60
2022-07-29T05:50:13.541Z,60.40
2022-07-29T05:52:40.351Z,60.40
2022-07-29T05:55:07.463Z,60.10
2022-07-29T05:57:34.262Z,60.00
2022-07-29T06:00:01.038Z,59.70
2022-07-29T06:02:27.886Z,59.90
2022-07-29T06:04:54.872Z,60.00
2022-07-29T06:07:22.023Z,60.20
2022-07-29T06:09:48.814Z,60.20
2022-07-29T06:12:15.616Z,60.00
2022-07-29T06:14:42.525Z,59.80
2022-07-29T06:17:09.337Z,59.40
2022-07-29T06:19:37.240Z,59.70
2022-07-29T06:22:04.414Z,59.50
2022-07-29T06:24:31.637Z,59.90
2022-07-29T06:26:58.322Z,59.70
2022-07-29T06:29:25.114Z,60.30
2022-07-29T06:31:52.021Z,60.10
2022-07-29T06:34:19.300Z,60.10
2022-07-29T06:36:47.561Z,60.10
2022-07-29T06:39:15.556Z,60.10
2022-07-29T06:41:42.461Z,60.10
2022-07-29T06:44:09.294Z,59.50
2022-07-29T06:46:36.195Z,59.00
2022-07-29T06:49:03.451Z,59.40
2022-07-29T06:51:30.497Z,59.40
2022-07-29T06:54:02.046Z,58.90
2022-07-29T06:56:39.420Z,59.30
2022-07-29T06:59:07.514Z,58.60
2022-07-29T07:01:34.362Z,57.10
2022-07-29T07:04:01.303Z,56.50
2022-07-29T07:06:28.427Z,57.90
2022-07-29T07:08:55.329Z,56.70
2022-07-29T07:11:22.224Z,55.20
2022-07-29T07:13:48.950Z,55.70
2022-07-29T07:16:15.948Z,56.40
2022-07-29T07:18:43.038Z,55.70
2022-07-29T07:21:09.813Z,56.20
2022-07-29T07:23:36.536Z,56.00
2022-07-29T07:26:04.044Z,56.50
2022-07-29T07:28:30.735Z,56.60
2022-07-29T07:30:57.559Z,56.80
2022-07-29T07:33:24.402Z,56.80
2022-07-29T07:35:51.314Z,56.10
2022-07-29T07:38:18.046Z,55.80
2022-07-29T07:40:44.723Z,55.10
2022-07-29T07:43:11.463Z,54.80
2022-07-29T07:45:38.557Z,54.60
2022-07-29T07:48:05.901Z,54.60
2022-07-29T07:50:32.751Z,54.50
2022-07-29T07:52:59.728Z,54.80
2022-07-29T07:55:27.209Z,54.20
2022-07-29T07:57:54.972Z,54.60
2022-07-29T08:00:23.225Z,54.40
2022-07-29T08:02:51.051Z,54.60
2022-07-29T08:05:18.606Z,54.70
2022-07-29T08:07:46.951Z,51.50
2022-07-29T08:10:16.052Z,51.50
2022-07-29T08:12:44.657Z,52.80
2022-07-29T08:15:11.470Z,53.10
2022-07-29T08:17:38.150Z,53.00
2022-07-29T08:20:05.350Z,53.00
2022-07-29T08:22:32.169Z,52.80
2022-07-29T08:24:58.885Z,52.90
2022-07-29T08:27:43.292Z,52.40
2022-07-29T08:30:11.272Z,52.10
2022-07-29T08:32:53.322Z,53.10
2022-07-29T08:35:22.278Z,52.80
2022-07-29T08:37:49.322Z,52.60
2022-07-29T08:40:16.205Z,51.80
2022-07-29T08:42:43.165Z,51.00
2022-07-29T08:45:10.334Z,51.60
2022-07-29T08:47:40.494Z,51.60
2022-07-29T08:50:11.297Z,51.30
2022-07-29T08:52:40.117Z,50.70
2022-07-29T08:55:09.358Z,51.80
2022-07-29T08:57:37.344Z,51.30
2022-07-29T09:00:11.559Z,51.50
2022-07-29T09:02:46.802Z,51.20
2022-07-29T09:05:15.312Z,51.50
2022-07-29T09:07:44.219Z,50.70
2022-07-29T09:10:11.433Z,51.40
2022-07-29T09:12:38.851Z,51.50
2022-07-29T09:15:06.187Z,50.60
2022-07-29T09:17:49.570Z,50.00
2022-07-29T09:20:18.020Z,49.60
2022-07-29T09:22:48.161Z,49.00
2022-07-29T09:25:14.878Z,48.20
2022-07-29T09:27:42.042Z,48.60
2022-07-29T09:30:13.315Z,48.30
2022-07-29T09:32:58.258Z,48.70
2022-07-29T09:35:26.869Z,48.40
2022-07-29T09:37:53.777Z,46.30
2022-07-29T09:40:29.099Z,46.30
2022-07-29T09:42:58.169Z,46.40
2022-07-29T09:45:33.813Z,45.90
2022-07-29T09:48:13.494Z,44.60
2022-07-29T09:50:42.235Z,44.60
2022-07-29T09:53:12.339Z,45.20
2022-07-29T09:55:52.528Z,44.90
2022-07-29T09:58:21.201Z,43.50
2022-07-29T10:00:49.145Z,44.40
2022-07-29T10:03:17.179Z,46.10
2022-07-29T10:05:44.811Z,44.10
2022-07-29T10:08:13.465Z,44.30
2022-07-29T10:10:42.695Z,44.30
2022-07-29T10:13:16.605Z,44.40
2022-07-29T10:15:46.292Z,44.00
2022-07-29T10:18:14.805Z,42.70
2022-07-29T10:20:42.338Z,42.60
2022-07-29T10:23:10.263Z,41.80
2022-07-29T10:25:37.202Z,41.70
2022-07-29T10:28:04.102Z,41.70
2022-07-29T10:30:31.949Z,41.80
2022-07-29T10:33:15.168Z,41.00
2022-07-29T10:35:56.827Z,42.30
2022-07-29T10:38:49.515Z,42.00
2022-07-29T10:41:32.070Z,41.20
2022-07-29T10:44:17.054Z,39.80
2022-07-29T10:46:44.751Z,40.30
2022-07-29T10:49:18.887Z,40.50
2022-07-29T10:51:58.962Z,40.90
2022-07-29T10:54:43.682Z,41.00
2022-07-29T10:57:14.019Z,40.60
2022-07-29T10:59:46.254Z,40.70
2022-07-29T11:02:41.430Z,40.70
2022-07-29T11:05:20.575Z,40.70
2022-07-29T11:11:22.215Z,40.10
2022-07-29T11:14:10.348Z,39.80
2022-07-29T11:17:14.359Z,39.30
2022-07-29T11:19:46.791Z,38.90
2022-07-29T11:22:35.342Z,39.10
2022-07-29T11:25:50.320Z,39.00
2022-07-29T11:28:23.158Z,39.10
2022-07-29T11:30:54.105Z,39.00
2022-07-29T11:33:54.193Z,38.70
2022-07-29T11:36:27.951Z,37.20
2022-07-29T11:39:36.371Z,38.40
2022-07-29T11:42:28.194Z,38.00
2022-07-29T11:45:44.360Z,37.70
2022-07-29T11:47:55.763Z,37.90
2022-07-29T11:50:37.555Z,37.50
2022-07-29T11:53:16.081Z,37.10
2022-07-29T11:55:50.985Z,37.40
2022-07-29T11:58:24.870Z,38.10
2022-07-29T12:00:52.531Z,38.30
2022-07-29T12:03:33.562Z,37.80
2022-07-29T12:06:07.938Z,37.30
2022-07-29T12:08:42.419Z,37.90
2022-07-29T12:11:21.691Z,38.20
2022-07-29T12:13:49.845Z,38.10
2022-07-29T12:16:25.722Z,38.00
2022-07-29T12:19:08.185Z,37.70
2022-07-29T12:21:56.758Z,37.90
2022-07-29T12:24:26.735Z,38.60
2022-07-29T12:26:58.898Z,38.40
2022-07-29T12:29:35.638Z,38.50
2022-07-29T12:32:05.250Z,37.80
2022-07-29T12:34:33.029Z,38.70
2022-07-29T12:37:02.205Z,39.40
2022-07-29T12:39:30.280Z,39.40
2022-07-29T12:42:03.793Z,39.10
2022-07-29T12:44:52.495Z,39.00
2022-07-29T12:47:20.530Z,39.00
2022-07-29T12:49:48.521Z,38.80
2022-07-29T12:52:29.680Z,38.70
2022-07-29T12:54:56.721Z,38.50
2022-07-29T12:57:24.888Z,38.10
2022-07-29T13:00:06.240Z,38.30
2022-07-29T13:02:33.076Z,38.10
2022-07-29T13:05:01.804Z,37.50
2022-07-29T13:07:55.642Z,37.50
2022-07-29T13:10:24.314Z,37.20
2022-07-29T13:13:04.554Z,36.40
2022-07-29T13:15:32.488Z,37.20
2022-07-29T13:17:59.553Z,37.20
2022-07-29T13:20:30.565Z,36.70
2022-07-29T13:23:01.699Z,35.90
2022-07-29T13:25:32.641Z,35.90
2022-07-29T13:28:00.586Z,36.20
2022-07-29T13:30:27.535Z,36.40
2022-07-29T13:32:54.375Z,36.50
2022-07-29T13:35:21.332Z,36.70
2022-07-29T13:37:48.335Z,36.40
2022-07-29T13:40:15.282Z,36.40
2022-07-29T13:42:42.411Z,36.60
2022-07-29T13:45:11.672Z,36.70
2022-07-29T13:47:39.037Z,36.60
2022-07-29T13:50:07.080Z,36.00
2022-07-29T13:52:34.464Z,36.10
2022-07-29T13:55:01.320Z,36.00
2022-07-29T13:57:28.930Z,35.90
2022-07-29T13:59:55.785Z,36.00
2022-07-29T14:02:25.357Z,36.00
2022-07-29T14:04:53.733Z,36.20
2022-07-29T14:07:20.805Z,36.50
2022-07-29T14:09:47.549Z,37.50
2022-07-29T14:12:14.281Z,38.10
2022-07-29T14:14:41.107Z,38.50
2022-07-29T14:17:08.064Z,38.20
2022-07-29T14:19:36.708Z,37.70
2022-07-29T14:22:05.458Z,37.60
2022-07-29T14:24:34.700Z,37.80
2022-07-29T14:27:04.554Z,37.40
2022-07-29T14:29:37.668Z,37.30
2022-07-29T14:32:06.915Z,36.80
2022-07-29T14:34:34.407Z,36.60
2022-07-29T14:37:01.214Z,36.90
2022-07-29T14:39:31.757Z,36.80
2022-07-29T14:41:59.451Z,36.50
2022-07-29T14:44:32.000Z,35.90
2022-07-29T14:47:00.853Z,35.60
2022-07-29T14:49:28.077Z,34.70
2022-07-29T14:51:55.076Z,35.10
2022-07-29T14:54:21.933Z,35.00
2022-07-29T14:56:50.315Z,34.60
2022-07-29T14:59:17.519Z,34.90
2022-07-29T15:01:44.315Z,35.20
2022-07-29T15:04:11.091Z,35.30
2022-07-29T15:06:38.828Z,35.10
2022-07-29T15:09:05.638Z,34.80
2022-07-29T15:11:32.516Z,33.80
2022-07-29T15:14:08.167Z,34.00
2022-07-29T15:16:37.855Z,33.60
2022-07-29T15:19:05.739Z,33.30
2022-07-29T15:21:33.041Z,32.90
2022-07-29T15:24:02.254Z,32.70
2022-07-29T15:26:28.981Z,32.80
2022-07-29T15:28:57.117Z,33.10
2022-07-29T15:31:23.854Z,32.20
2022-07-29T15:33:54.383Z,32.50
2022-07-29T15:36:50.717Z,32.30
2022-07-29T15:39:10.613Z,33.20
2022-07-29T15:41:37.542Z,33.60
2022-07-29T15:44:04.469Z,33.60
2022-07-29T15:46:49.881Z,33.90
2022-07-29T15:49:16.675Z,33.80
2022-07-29T15:51:43.510Z,33.50
2022-07-29T15:54:10.253Z,33.10
2022-07-29T15:56:36.949Z,33.40
2022-07-29T15:59:03.839Z,33.90
2022-07-29T16:01:30.669Z,34.40
2022-07-29T16:03:58.616Z,35.20
2022-07-29T16:06:25.331Z,35.50
2022-07-29T16:08:52.046Z,35.80
2022-07-29T16:11:18.713Z,36.00
2022-07-29T16:13:45.457Z,36.20
2022-07-29T16:16:13.131Z,36.40
2022-07-29T16:18:39.831Z,36.70
2022-07-29T16:21:06.501Z,36.80
2022-07-29T16:23:36.263Z,37.00
2022-07-29T16:26:02.928Z,37.10
2022-07-29T16:28:30.636Z,37.10
2022-07-29T16:30:57.874Z,37.40
2022-07-29T16:33:25.087Z,37.60
2022-07-29T16:35:52.801Z,37.70
2022-07-29T16:38:19.597Z,37.80
2022-07-29T16:40:46.639Z,38.00
2022-07-29T16:43:13.464Z,38.20
2022-07-29T16:45:45.331Z,38.30
2022-07-29T16:48:14.256Z,38.40
2022-07-29T16:50:41.417Z,38.30
2022-07-29T16:53:10.830Z,38.40
2022-07-29T16:55:37.744Z,38.70
2022-07-29T16:58:04.541Z,38.70
2022-07-29T17:00:31.653Z,38.90
2022-07-29T17:02:59.945Z,39.20
2022-07-29T17:05:27.819Z,39.30
2022-07-29T17:07:54.885Z,39.00
2022-07-29T17:10:22.279Z,39.10
2022-07-29T17:12:49.017Z,39.30
2022-07-29T17:15:18.476Z,39.60
2022-07-29T17:17:55.104Z,39.70
2022-07-29T17:20:22.570Z,39.70
2022-07-29T17:22:49.264Z,40.00
2022-07-29T17:25:20.590Z,40.00
2022-07-29T17:27:50.400Z,40.00
2022-07-29T17:30:17.545Z,40.00
2022-07-29T17:32:44.250Z,40.00
2022-07-29T17:35:29.698Z,40.00
2022-07-29T17:37:56.659Z,40.10
2022-07-29T17:40:25.747Z,40.20
2022-07-29T17:42:52.463Z,40.50
2022-07-29T17:45:19.244Z,40.50
2022-07-29T17:47:45.961Z,41.60
2022-07-29T17:50:12.754Z,40.80
2022-07-29T17:52:39.557Z,40.90
2022-07-29T17:55:07.150Z,41.00
2022-07-29T17:57:34.173Z,41.10
2022-07-29T18:00:00.918Z,41.10
2022-07-29T18:02:28.613Z,41.30
2022-07-29T18:04:58.427Z,41.40
2022-07-29T18:07:25.109Z,41.60
2022-07-29T18:09:51.796Z,41.60
2022-07-29T18:12:18.542Z,41.80
2022-07-29T18:14:45.226Z,42.00
2022-07-29T18:17:11.961Z,42.10
2022-07-29T18:19:38.900Z,42.60
2022-07-29T18:22:07.351Z,42.80
2022-07-29T18:24:34.943Z,43.10
2022-07-29T18:27:02.037Z,43.30
2022-07-29T18:29:30.295Z,43.30
2022-07-29T18:31:58.807Z,43.50
2022-07-29T18:34:25.758Z,43.90
2022-07-29T18:36:52.547Z,44.60
2022-07-29T18:39:20.975Z,44.20
2022-07-29T18:41:51.614Z,44.80
2022-07-29T18:44:22.102Z,44.60
2022-07-29T18:46:50.487Z,44.60
2022-07-29T18:49:17.344Z,44.70
2022-07-29T18:51:44.093Z,44.80
2022-07-29T18:54:13.711Z,45.00
2022-07-29T18:56:40.390Z,45.10
2022-07-29T18:59:07.384Z,45.40
2022-07-29T19:01:34.154Z,45.60
2022-07-29T19:04:01.415Z,45.80
2022-07-29T19:06:28.178Z,45.90
2022-07-29T19:08:54.905Z,45.90
2022-07-29T19:11:21.830Z,46.10
2022-07-29T19:13:48.821Z,46.30
2022-07-29T19:16:15.571Z,46.50
2022-07-29T19:18:43.485Z,46.90
2022-07-29T19:21:11.091Z,47.10
2022-07-29T19:24:01.791Z,47.30
2022-07-29T19:26:24.541Z,47.50
2022-07-29T19:28:53.350Z,47.70
2022-07-29T19:31:20.197Z,47.90
2022-07-29T19:33:46.977Z,48.00
2022-07-29T19:36:13.683Z,48.50
2022-07-29T19:38:40.494Z,48.70
2022-07-29T19:41:07.227Z,48.90
2022-07-29T19:43:51.499Z,49.10
2022-07-29T19:46:21.316Z,49.30
2022-07-29T19:48:48.423Z,49.40
2022-07-29T19:51:15.313Z,49.70
2022-07-29T19:53:42.016Z,50.90
2022-07-29T19:56:09.128Z,51.00
2022-07-29T19:58:36.206Z,50.20
2022-07-29T20:01:10.708Z,50.50
2022-07-29T20:03:39.957Z,50.60
2022-07-29T20:06:10.386Z,50.70
2022-07-29T20:08:37.238Z,51.10
2022-07-29T20:11:04.101Z,51.20
2022-07-29T20:13:33.085Z,51.40
2022-07-29T20:16:05.244Z,51.50
2022-07-29T20:18:32.121Z,51.70
2022-07-29T20:21:00.253Z,51.80
2022-07-29T20:23:30.169Z,52.20
2022-07-29T20:26:00.340Z,52.20
2022-07-29T20:28:27.625Z,52.60
2022-07-29T20:30:56.939Z,52.70
2022-07-29T20:33:26.571Z,52.70
2022-07-29T20:35:53.463Z,52.90
2022-07-29T20:38:22.990Z,53.30
2022-07-29T20:40:50.775Z,53.50
2022-07-29T20:43:17.567Z,53.90
2022-07-29T20:45:44.493Z,54.30
2022-07-29T20:48:11.630Z,54.50
2022-07-29T20:50:38.447Z,54.70
2022-07-29T20:53:05.337Z,55.00
2022-07-29T20:55:32.253Z,55.30
2022-07-29T20:57:59.044Z,55.50
2022-07-29T21:00:25.868Z,56.00
2022-07-29T21:02:52.678Z,56.30
2022-07-29T21:05:19.495Z,56.60
2022-07-29T21:07:46.277Z,57.10
2022-07-29T21:10:18.229Z,57.20
2022-07-29T21:12:48.684Z,57.50
2022-07-29T21:15:16.251Z,57.80
2022-07-29T21:17:48.937Z,57.90
2022-07-29T21:20:19.487Z,58.10
2022-07-29T21:22:49.037Z,58.80
2022-07-29T21:25:15.834Z,58.80
2022-07-29T21:28:00.986Z,59.30
2022-07-29T21:30:27.821Z,59.60
2022-07-29T21:32:54.579Z,59.80
2022-07-29T21:35:45.363Z,60.00
2022-07-29T21:38:07.997Z,60.20
2022-07-29T21:40:34.732Z,60.30
2022-07-29T21:43:04.394Z,60.50
2022-07-29T21:45:31.115Z,60.40
2022-07-29T21:47:57.766Z,60.70
2022-07-29T21:50:24.444Z,61.00
2022-07-29T21:52:51.176Z,61.20
2022-07-29T21:55:18.611Z,61.50
2022-07-29T21:57:46.151Z,61.80
2022-07-29T22:00:16.260Z,62.00
2022-07-29T22:02:43.576Z,62.10
2022-07-29T22:05:12.297Z,62.40
2022-07-29T22:07:55.907Z,62.50
2022-07-29T22:10:27.557Z,62.60
2022-07-29T22:12:56.745Z,62.70
2022-07-29T22:15:24.336Z,62.70
2022-07-29T22:17:51.240Z,63.10
2022-07-29T22:20:18.513Z,63.40
2022-07-29T22:22:45.578Z,63.40
2022-07-29T22:25:12.456Z,63.60
2022-07-29T22:27:39.325Z,63.60
2022-07-29T22:30:07.370Z,64.00
2022-07-29T22:32:34.554Z,65.20
2022-07-29T22:35:01.464Z,64.30
2022-07-29T22:37:28.369Z,64.40
2022-07-29T22:39:55.065Z,64.50
2022-07-29T22:42:21.787Z,64.80
2022-07-29T22:44:48.525Z,64.80
2022-07-29T22:47:15.257Z,64.80
2022-07-29T22:49:42.077Z,65.00
2022-07-29T22:52:09.155Z,65.10
2022-07-29T22:54:35.865Z,65.40
2022-07-29T22:57:03.160Z,65.60
2022-07-29T22:59:30.011Z,65.40
2022-07-29T23:01:56.787Z,65.60
2022-07-29T23:04:23.764Z,65.50
2022-07-29T23:06:51.126Z,65.60
2022-07-29T23:09:17.982Z,65.60
2022-07-29T23:11:45.034Z,65.70
2022-07-29T23:14:11.762Z,65.90
2022-07-29T23:16:38.580Z,66.10
2022-07-29T23:19:05.502Z,66.30
2022-07-29T23:21:32.182Z,66.40
2022-07-29T23:23:59.019Z,66.50
2022-07-29T23:26:25.828Z,66.80
2022-07-29T23:28:52.562Z,66.80
2022-07-29T23:31:19.348Z,67.10
2022-07-29T23:33:46.040Z,67.10
2022-07-29T23:36:12.782Z,67.30
2022-07-29T23:38:43.092Z,67.20
2022-07-29T23:41:09.921Z,67.20
2022-07-29T23:43:37.677Z,67.30
2022-07-29T23:46:05.015Z,67.40
2022-07-29T23:48:34.476Z,67.60
2022-07-29T23:51:01.297Z,67.80
2022-07-29T23:53:28.588Z,67.80
2022-07-29T23:55:56.070Z,67.90
2022-07-29T23:58:23.118Z,68.10
